Welcome to Des Moines Iowa Weather. I am an independent private personal weather station on the Northwest Side of Des Moines, Iowa. Just East of Windsor Heights and just West of Glendale . This site is also mobile friendly.

There are no active watches, warnings or advisories


Visit our other weather sites:

Historical Data

Weather Station Setup



Weather Underground History page Text

Daily Summary for August 5, 2017 Units:  English    Metric   Both
« Previous Day
Next Day »
Daily Weekly Monthly Yearly Custom
  High: Low: Average:
Temperature: 75.4 °F 54.2 °F 65.1 °F
Dew Point: 62.0 °F 52.0 °F 56.7 °F
Humidity: 94 % 52 % 76 %
Wind Speed: 3.0 mph 0.0 mph 0.1 mph
Wind Gust: 6.0 mph - -
Wind:- - SSW
Pressure: 30.03 in 29.90 in -
Precipitation: 0.01 in    
Historical Graphs
 
 
Tabular Data for August 5, 2017
Time Temperature Dew Point Pressure Wind Wind Speed Wind Gust Humidity Rainfall Rate (Hourly)
00:11 60.3 °F 53.0 °F 30.02 in Calm     76 % 0.00 in
00:26 59.9 °F 53.0 °F 30.02 in Calm     78 % 0.00 in
00:43 59.4 °F 53.0 °F 30.02 in Calm     78 % 0.00 in
00:57 59.1 °F 53.0 °F 30.02 in Calm     80 % 0.00 in
01:11 58.7 °F 53.0 °F 30.02 in Calm     80 % 0.00 in
01:27 58.4 °F 53.0 °F 30.03 in Calm     83 % 0.00 in
01:42 58.2 °F 53.0 °F 30.03 in Calm     84 % 0.00 in
01:57 58.0 °F 54.0 °F 30.03 in Calm     86 % 0.00 in
02:12 57.8 °F 54.0 °F 30.02 in Calm     87 % 0.00 in
02:27 57.6 °F 54.0 °F 30.02 in Calm     88 % 0.00 in
02:42 57.3 °F 54.0 °F 30.02 in Calm     89 % 0.00 in
02:57 57.1 °F 54.0 °F 30.02 in Calm     89 % 0.00 in
03:12 56.8 °F 54.0 °F 30.02 in Calm     89 % 0.00 in
03:27 56.4 °F 53.0 °F 30.02 in Calm     89 % 0.00 in
03:42 56.2 °F 53.0 °F 30.02 in Calm     90 % 0.00 in
03:57 56.0 °F 53.0 °F 30.01 in Calm     90 % 0.00 in
04:12 55.8 °F 53.0 °F 30.00 in Calm     90 % 0.00 in
04:27 55.7 °F 53.0 °F 29.99 in Calm     90 % 0.00 in
04:42 55.7 °F 53.0 °F 29.99 in Calm     91 % 0.00 in
04:57 55.6 °F 53.0 °F 29.98 in Calm     92 % 0.00 in
05:12 55.5 °F 53.0 °F 29.98 in Calm     92 % 0.00 in
05:27 55.3 °F 53.0 °F 29.98 in Calm     92 % 0.00 in
05:42 55.0 °F 53.0 °F 29.98 in Calm     92 % 0.00 in
05:57 54.7 °F 53.0 °F 29.97 in Calm     92 % 0.00 in
06:12 54.5 °F 52.0 °F 29.97 in Calm     92 % 0.00 in
06:27 54.4 °F 52.0 °F 29.97 in Calm     92 % 0.00 in
06:42 54.2 °F 52.0 °F 29.96 in Calm     92 % 0.00 in
06:57 54.4 °F 52.0 °F 29.98 in Calm     92 % 0.00 in
07:12 54.8 °F 53.0 °F 29.98 in Calm     93 % 0.00 in
07:28 55.9 °F 54.0 °F 29.97 in Calm     94 % 0.00 in
07:42 56.7 °F 55.0 °F 29.98 in Calm     94 % 0.00 in
07:57 57.6 °F 56.0 °F 30.01 in Calm     94 % 0.00 in
08:12 58.1 °F 56.0 °F 30.01 in Calm   2.0 mph 94 % 0.00 in
08:27 58.8 °F 57.0 °F 30.01 in Calm     92 % 0.00 in
08:43 60.0 °F 57.0 °F 30.02 in Calm   1.0 mph 90 % 0.00 in
08:58 61.4 °F 58.0 °F 30.02 in West 2.0 mph 2.0 mph 88 % 0.00 in
09:13 63.0 °F 58.0 °F 30.02 in Calm   2.0 mph 83 % 0.00 in
09:28 64.4 °F 58.0 °F 30.02 in Calm   4.0 mph 81 % 0.00 in
09:43 65.6 °F 59.0 °F 30.01 in SW 1.0 mph 2.0 mph 78 % 0.00 in
09:58 66.6 °F 59.0 °F 30.01 in Calm   4.0 mph 76 % 0.00 in
10:13 67.6 °F 58.0 °F 30.02 in South 2.0 mph 3.0 mph 72 % 0.00 in
10:28 68.4 °F 58.0 °F 30.01 in Calm   4.0 mph 70 % 0.00 in
10:43 69.3 °F 58.0 °F 30.00 in Calm   4.0 mph 68 % 0.00 in
10:58 70.1 °F 59.0 °F 29.99 in ESE 3.0 mph 4.0 mph 67 % 0.00 in
11:13 71.1 °F 59.0 °F 29.99 in Calm   3.0 mph 66 % 0.00 in
11:28 72.2 °F 59.0 °F 29.98 in Calm   3.0 mph 63 % 0.00 in
11:43 73.0 °F 59.0 °F 29.99 in Calm   2.0 mph 62 % 0.00 in
11:58 73.0 °F 58.0 °F 29.99 in Calm   5.0 mph 59 % 0.00 in
12:13 73.2 °F 58.0 °F 29.98 in Calm   2.0 mph 59 % 0.00 in
12:28 73.1 °F 57.0 °F 29.98 in Calm   1.0 mph 58 % 0.00 in
12:43 73.3 °F 58.0 °F 29.99 in Calm   3.0 mph 59 % 0.00 in
12:59 73.3 °F 58.0 °F 29.98 in Calm   2.0 mph 59 % 0.00 in
13:13 73.0 °F 58.0 °F 29.98 in Calm   3.0 mph 59 % 0.00 in
13:28 72.8 °F 58.0 °F 29.98 in Calm     61 % 0.00 in
13:43 72.6 °F 58.0 °F 29.97 in Calm   2.0 mph 61 % 0.00 in
13:58 72.6 °F 60.0 °F 29.96 in Calm     64 % 0.00 in
14:14 72.8 °F 59.0 °F 29.95 in Calm   1.0 mph 63 % 0.00 in
14:29 73.2 °F 56.0 °F 29.94 in Calm   2.0 mph 56 % 0.00 in
14:43 73.8 °F 57.0 °F 29.93 in Calm   3.0 mph 56 % 0.00 in
14:59 75.4 °F 56.0 °F 29.93 in SSW 1.0 mph 4.0 mph 52 % 0.00 in
15:14 74.5 °F 57.0 °F 29.94 in Calm   2.0 mph 55 % 0.00 in
15:29 74.6 °F 57.0 °F 29.95 in Calm   6.0 mph 55 % 0.00 in
15:44 74.8 °F 57.0 °F 29.95 in Calm   2.0 mph 54 % 0.00 in
15:59 74.5 °F 56.0 °F 29.95 in SW 1.0 mph 2.0 mph 53 % 0.00 in
16:14 74.2 °F 57.0 °F 29.96 in SW 1.0 mph 3.0 mph 56 % 0.00 in
16:29 73.8 °F 56.0 °F 29.97 in Calm   2.0 mph 54 % 0.00 in
16:44 73.4 °F 57.0 °F 29.98 in Calm     57 % 0.00 in
16:59 73.1 °F 57.0 °F 29.97 in Calm     57 % 0.00 in
17:14 72.8 °F 57.0 °F 29.96 in Calm     59 % 0.00 in
17:29 72.4 °F 59.0 °F 29.95 in Calm     63 % 0.00 in
17:44 71.7 °F 61.0 °F 29.95 in Calm     70 % 0.00 in
17:59 71.0 °F 62.0 °F 29.93 in Calm     74 % 0.01 in
18:14 70.4 °F 62.0 °F 29.93 in Calm   1.0 mph 74 % 0.01 in
18:29 69.9 °F 61.0 °F 29.93 in Calm   1.0 mph 74 % 0.01 in
18:44 69.8 °F 62.0 °F 29.93 in Calm     76 % 0.00 in
18:59 69.4 °F 61.0 °F 29.92 in Calm   1.0 mph 74 % 0.00 in
19:14 69.2 °F 61.0 °F 29.91 in Calm   1.0 mph 75 % 0.00 in
19:29 69.0 °F 61.0 °F 29.91 in Calm   2.0 mph 75 % 0.00 in
19:44 68.8 °F 61.0 °F 29.91 in Calm     75 % 0.00 in
19:59 68.6 °F 60.0 °F 29.91 in Calm     74 % 0.00 in
20:14 68.3 °F 60.0 °F 29.91 in Calm     74 % 0.00 in
20:29 68.0 °F 60.0 °F 29.91 in Calm     75 % 0.00 in
20:44 67.6 °F 60.0 °F 29.91 in Calm     76 % 0.00 in
21:14 66.5 °F 59.0 °F 29.90 in Calm     77 % 0.00 in
21:29 66.1 °F 59.0 °F 29.91 in Calm     78 % 0.00 in
21:44 65.8 °F 59.0 °F 29.91 in Calm     79 % 0.00 in
21:59 65.6 °F 59.0 °F 29.91 in Calm   1.0 mph 78 % 0.00 in
22:14 65.7 °F 58.0 °F 29.91 in Calm   1.0 mph 77 % 0.00 in
22:29 65.6 °F 58.0 °F 29.92 in Calm     77 % 0.00 in
22:44 65.6 °F 59.0 °F 29.93 in Calm     78 % 0.00 in
22:59 65.5 °F 58.0 °F 29.93 in Calm     78 % 0.00 in
23:14 65.5 °F 58.0 °F 29.93 in Calm     78 % 0.00 in
23:29 65.5 °F 58.0 °F 29.93 in Calm     78 % 0.00 in
23:44 65.5 °F 58.0 °F 29.93 in Calm     78 % 0.00 in
23:59 65.6 °F 59.0 °F 29.93 in Calm     79 % 0.00 in
Des Moines Weather and Climate
Compliments of Weather Underground - 3 mb

Script developed by  Jim McMurry - jmcmurry@mwt.net Adapted for the template by  Wim van der Kuil - Leuven-Template.eu

You find our weather info also at:

Weather Underground

Equipment we use:

Weather-station
Davis VP2 Plus

Weather-program
Davis Weatherlink.Com

Weather-server
iMac (Retina 4K, 21.5-inch, Late 2015)

Provider
Hostmonster.com

Davis VP2 Plus

Davis Weatherlink.Com

iMac (Retina 4K, 21.5-inch, Late 2015)

Hostmonster.com